sensor_id;sensor_type;location;lat;lon;timestamp;pressure;altitude;pressure_sealevel;temperature;humidity
72525;BME280;60547;48.502;8.996;2023-04-24T00:01:39;96929.34;;;10.67;78.67
72525;BME280;60547;48.502;8.996;2023-04-24T00:04:05;96928.72;;;10.63;77.99
72525;BME280;60547;48.502;8.996;2023-04-24T00:06:32;96922.53;;;10.68;77.53
72525;BME280;60547;48.502;8.996;2023-04-24T00:08:59;96934.63;;;10.84;77.90
72525;BME280;60547;48.502;8.996;2023-04-24T00:11:26;96949.63;;;10.86;78.06
72525;BME280;60547;48.502;8.996;2023-04-24T00:13:52;96937.09;;;10.82;78.17
72525;BME280;60547;48.502;8.996;2023-04-24T00:16:17;96939.88;;;10.91;77.76
72525;BME280;60547;48.502;8.996;2023-04-24T00:18:43;96937.25;;;10.87;78.33
72525;BME280;60547;48.502;8.996;2023-04-24T00:21:10;96943.75;;;10.93;78.27
72525;BME280;60547;48.502;8.996;2023-04-24T00:23:36;96940.19;;;10.84;78.28
72525;BME280;60547;48.502;8.996;2023-04-24T00:26:02;96935.25;;;10.88;78.59
72525;BME280;60547;48.502;8.996;2023-04-24T00:28:27;96939.88;;;10.91;78.24
72525;BME280;60547;48.502;8.996;2023-04-24T00:30:53;96930.31;;;10.92;77.85
72525;BME280;60547;48.502;8.996;2023-04-24T00:33:19;96934.94;;;10.95;78.78
72525;BME280;60547;48.502;8.996;2023-04-24T00:35:44;96931.53;;;11.00;78.46
72525;BME280;60547;48.502;8.996;2023-04-24T00:38:10;96941.28;;;10.95;77.79
72525;BME280;60547;48.502;8.996;2023-04-24T00:40:35;96922.41;;;10.90;77.42
72525;BME280;60547;48.502;8.996;2023-04-24T00:43:01;96933.88;;;11.02;77.58
72525;BME280;60547;48.502;8.996;2023-04-24T00:45:26;96923.97;;;10.91;76.72
72525;BME280;60547;48.502;8.996;2023-04-24T00:47:53;96925.06;;;11.03;77.40
72525;BME280;60547;48.502;8.996;2023-04-24T00:50:20;96928.16;;;11.05;77.85
72525;BME280;60547;48.502;8.996;2023-04-24T00:52:46;96926.75;;;11.00;76.63
72525;BME280;60547;48.502;8.996;2023-04-24T00:55:12;96909.59;;;10.93;77.47
72525;BME280;60547;48.502;8.996;2023-04-24T00:57:38;96925.06;;;11.03;77.65
72525;BME280;60547;48.502;8.996;2023-04-24T01:00:05;96932.16;;;11.04;77.77
72525;BME280;60547;48.502;8.996;2023-04-24T01:02:31;96932.31;;;11.00;77.96
72525;BME280;60547;48.502;8.996;2023-04-24T01:05:00;96932.63;;;11.03;78.99
72525;BME280;60547;48.502;8.996;2023-04-24T01:07:27;96910.19;;;10.88;79.80
72525;BME280;60547;48.502;8.996;2023-04-24T01:09:52;96923.03;;;10.94;81.15
72525;BME280;60547;48.502;8.996;2023-04-24T01:12:19;96924.59;;;10.95;82.83
72525;BME280;60547;48.502;8.996;2023-04-24T01:14:45;96907.56;;;10.84;84.71
72525;BME280;60547;48.502;8.996;2023-04-24T01:17:11;96908.66;;;10.78;85.61
72525;BME280;60547;48.502;8.996;2023-04-24T01:19:37;96912.81;;;10.73;86.09
72525;BME280;60547;48.502;8.996;2023-04-24T01:22:11;96902.72;;;10.48;87.13
72525;BME280;60547;48.502;8.996;2023-04-24T01:24:37;96894.81;;;10.38;87.82
72525;BME280;60547;48.502;8.996;2023-04-24T01:27:03;96891.41;;;10.33;88.60
72525;BME280;60547;48.502;8.996;2023-04-24T01:29:28;96895.25;;;10.27;89.07
72525;BME280;60547;48.502;8.996;2023-04-24T01:31:55;96877.28;;;10.10;90.01
72525;BME280;60547;48.502;8.996;2023-04-24T01:34:20;96884.84;;;10.09;90.42
72525;BME280;60547;48.502;8.996;2023-04-24T01:36:46;96873.53;;;10.03;90.67
72525;BME280;60547;48.502;8.996;2023-04-24T01:39:13;96876.63;;;10.06;90.90
72525;BME280;60547;48.502;8.996;2023-04-24T01:41:38;96882.81;;;10.10;91.61
72525;BME280;60547;48.502;8.996;2023-04-24T01:44:04;96887.75;;;10.06;92.24
72525;BME280;60547;48.502;8.996;2023-04-24T01:46:30;96893.03;;;10.13;92.50
72525;BME280;60547;48.502;8.996;2023-04-24T01:48:58;96888.53;;;10.06;92.47
72525;BME280;60547;48.502;8.996;2023-04-24T01:51:24;96893.16;;;10.09;93.23
72525;BME280;60547;48.502;8.996;2023-04-24T01:53:50;96889.31;;;10.07;92.73
72525;BME280;60547;48.502;8.996;2023-04-24T01:56:16;96911.56;;;10.16;92.40
72525;BME280;60547;48.502;8.996;2023-04-24T01:58:42;96894.88;;;10.07;92.51
72525;BME280;60547;48.502;8.996;2023-04-24T02:01:08;96907.56;;;10.17;92.06
72525;BME280;60547;48.502;8.996;2023-04-24T02:03:34;96891.47;;;10.12;91.89
72525;BME280;60547;48.502;8.996;2023-04-24T02:05:59;96904.31;;;10.18;92.34
72525;BME280;60547;48.502;8.996;2023-04-24T02:08:25;96906.16;;;10.12;92.50
72525;BME280;60547;48.502;8.996;2023-04-24T02:10:50;96906.63;;;10.11;92.70
72525;BME280;60547;48.502;8.996;2023-04-24T02:13:16;96903.97;;;10.07;92.95
72525;BME280;60547;48.502;8.996;2023-04-24T02:15:41;96897.97;;;10.09;92.68
72525;BME280;60547;48.502;8.996;2023-04-24T02:18:07;96896.41;;;10.08;92.66
72525;BME280;60547;48.502;8.996;2023-04-24T02:20:32;96889.59;;;9.99;93.23
72525;BME280;60547;48.502;8.996;2023-04-24T02:23:01;96893.59;;;9.98;93.40
72525;BME280;60547;48.502;8.996;2023-04-24T02:25:26;96900.69;;;9.99;93.59
72525;BME280;60547;48.502;8.996;2023-04-24T02:27:52;96889.28;;;9.97;92.92
72525;BME280;60547;48.502;8.996;2023-04-24T02:30:17;96899.78;;;10.02;93.16
72525;BME280;60547;48.502;8.996;2023-04-24T02:32:43;96888.19;;;9.95;93.23
72525;BME280;60547;48.502;8.996;2023-04-24T02:35:08;96889.56;;;9.90;93.45
72525;BME280;60547;48.502;8.996;2023-04-24T02:37:34;96896.19;;;9.93;94.04
72525;BME280;60547;48.502;8.996;2023-04-24T02:39:59;96893.09;;;9.91;93.75
72525;BME280;60547;48.502;8.996;2023-04-24T02:42:25;96892.00;;;9.88;93.62
72525;BME280;60547;48.502;8.996;2023-04-24T02:44:50;96890.50;;;9.96;93.38
72525;BME280;60547;48.502;8.996;2023-04-24T02:47:16;96897.78;;;10.03;93.48
72525;BME280;60547;48.502;8.996;2023-04-24T02:49:42;96898.53;;;9.94;92.73
72525;BME280;60547;48.502;8.996;2023-04-24T02:52:08;96922.06;;;10.12;92.53
72525;BME280;60547;48.502;8.996;2023-04-24T02:54:35;96895.91;;;10.00;91.84
72525;BME280;60547;48.502;8.996;2023-04-24T02:57:01;96867.59;;;9.83;91.53
72525;BME280;60547;48.502;8.996;2023-04-24T02:59:26;96913.09;;;10.08;91.80
72525;BME280;60547;48.502;8.996;2023-04-24T03:01:54;96916.31;;;10.06;92.54
72525;BME280;60547;48.502;8.996;2023-04-24T03:04:19;96920.50;;;10.11;92.65
72525;BME280;60547;48.502;8.996;2023-04-24T03:06:45;96913.09;;;10.08;93.23
72525;BME280;60547;48.502;8.996;2023-04-24T03:09:11;96907.03;;;10.00;93.36
72525;BME280;60547;48.502;8.996;2023-04-24T03:11:36;96906.91;;;10.03;93.71
72525;BME280;60547;48.502;8.996;2023-04-24T03:14:07;96853.91;;;9.58;93.80
72525;BME280;60547;48.502;8.996;2023-04-24T03:16:33;96880.22;;;9.75;94.29
72525;BME280;60547;48.502;8.996;2023-04-24T03:18:58;96871.88;;;9.75;94.07
72525;BME280;60547;48.502;8.996;2023-04-24T03:21:24;96852.44;;;9.75;94.00
72525;BME280;60547;48.502;8.996;2023-04-24T03:23:50;96848.25;;;9.70;94.56
72525;BME280;60547;48.502;8.996;2023-04-24T03:26:15;96848.03;;;9.56;93.86
72525;BME280;60547;48.502;8.996;2023-04-24T03:28:41;96804.13;;;9.32;92.78
72525;BME280;60547;48.502;8.996;2023-04-24T03:31:06;96836.94;;;9.56;92.91
72525;BME280;60547;48.502;8.996;2023-04-24T03:33:32;96842.03;;;9.57;90.86
72525;BME280;60547;48.502;8.996;2023-04-24T03:35:58;96871.94;;;9.84;90.20
72525;BME280;60547;48.502;8.996;2023-04-24T03:38:23;96856.44;;;9.74;89.69
72525;BME280;60547;48.502;8.996;2023-04-24T03:40:49;96883.53;;;9.92;90.03
72525;BME280;60547;48.502;8.996;2023-04-24T03:43:14;96881.84;;;9.94;90.25
72525;BME280;60547;48.502;8.996;2023-04-24T03:45:40;96858.91;;;9.72;90.79
72525;BME280;60547;48.502;8.996;2023-04-24T03:48:05;96878.41;;;9.81;91.25
72525;BME280;60547;48.502;8.996;2023-04-24T03:50:31;96854.22;;;9.60;90.62
72525;BME280;60547;48.502;8.996;2023-04-24T03:52:57;96833.53;;;9.52;91.45
72525;BME280;60547;48.502;8.996;2023-04-24T03:55:22;96832.84;;;9.38;91.06
72525;BME280;60547;48.502;8.996;2023-04-24T03:57:47;96835.28;;;9.36;91.42
72525;BME280;60547;48.502;8.996;2023-04-24T04:00:13;96869.28;;;9.50;91.54
72525;BME280;60547;48.502;8.996;2023-04-24T04:02:39;96837.69;;;9.25;91.78
72525;BME280;60547;48.502;8.996;2023-04-24T04:05:05;96818.56;;;8.96;91.88
72525;BME280;60547;48.502;8.996;2023-04-24T04:07:31;96845.91;;;9.07;92.51
72525;BME280;60547;48.502;8.996;2023-04-24T04:09:56;96849.97;;;8.93;92.89
72525;BME280;60547;48.502;8.996;2023-04-24T04:12:22;96836.31;;;8.77;93.12
72525;BME280;60547;48.502;8.996;2023-04-24T04:14:47;96906.50;;;9.30;93.40
72525;BME280;60547;48.502;8.996;2023-04-24T04:17:13;96904.31;;;9.25;93.93
72525;BME280;60547;48.502;8.996;2023-04-24T04:19:38;96874.56;;;9.04;93.83
72525;BME280;60547;48.502;8.996;2023-04-24T04:22:04;96854.75;;;8.93;94.32
72525;BME280;60547;48.502;8.996;2023-04-24T04:24:29;96845.22;;;8.94;94.26
72525;BME280;60547;48.502;8.996;2023-04-24T04:26:55;96876.19;;;9.14;94.15
72525;BME280;60547;48.502;8.996;2023-04-24T04:29:22;96916.44;;;9.41;93.74
72525;BME280;60547;48.502;8.996;2023-04-24T04:31:48;96946.00;;;9.56;93.71
72525;BME280;60547;48.502;8.996;2023-04-24T04:34:13;96952.84;;;9.64;93.53
72525;BME280;60547;48.502;8.996;2023-04-24T04:36:40;96930.38;;;9.50;93.08
72525;BME280;60547;48.502;8.996;2023-04-24T04:39:06;96957.50;;;9.67;93.24
72525;BME280;60547;48.502;8.996;2023-04-24T04:41:32;96958.22;;;9.59;92.76
72525;BME280;60547;48.502;8.996;2023-04-24T04:44:01;96965.13;;;9.54;93.70
72525;BME280;60547;48.502;8.996;2023-04-24T04:46:27;96964.03;;;9.52;94.57
72525;BME280;60547;48.502;8.996;2023-04-24T04:48:55;96980.13;;;9.57;94.32
72525;BME280;60547;48.502;8.996;2023-04-24T04:51:21;96989.72;;;9.65;94.07
72525;BME280;60547;48.502;8.996;2023-04-24T04:53:47;96986.63;;;9.63;93.00
72525;BME280;60547;48.502;8.996;2023-04-24T04:56:12;96987.22;;;9.58;93.09
72525;BME280;60547;48.502;8.996;2023-04-24T04:58:38;96996.00;;;9.56;92.86
72525;BME280;60547;48.502;8.996;2023-04-24T05:01:03;96999.88;;;9.59;92.27
72525;BME280;60547;48.502;8.996;2023-04-24T05:03:29;96990.56;;;9.53;92.57
72525;BME280;60547;48.502;8.996;2023-04-24T05:05:55;97002.34;;;9.57;91.56
72525;BME280;60547;48.502;8.996;2023-04-24T05:08:20;96993.81;;;9.51;89.66
72525;BME280;60547;48.502;8.996;2023-04-24T05:10:45;96999.75;;;9.41;89.54
72525;BME280;60547;48.502;8.996;2023-04-24T05:13:11;97016.59;;;9.46;89.56
72525;BME280;60547;48.502;8.996;2023-04-24T05:15:36;97022.94;;;9.47;89.11
72525;BME280;60547;48.502;8.996;2023-04-24T05:18:02;97027.25;;;9.48;89.43
72525;BME280;60547;48.502;8.996;2023-04-24T05:20:28;97028.09;;;9.35;89.27
72525;BME280;60547;48.502;8.996;2023-04-24T05:22:53;97051.81;;;9.49;88.36
72525;BME280;60547;48.502;8.996;2023-04-24T05:25:19;97030.84;;;9.35;88.19
72525;BME280;60547;48.502;8.996;2023-04-24T05:27:45;97038.34;;;9.26;88.51
72525;BME280;60547;48.502;8.996;2023-04-24T05:30:11;97045.97;;;9.34;88.64
72525;BME280;60547;48.502;8.996;2023-04-24T05:32:37;97039.19;;;9.35;90.09
72525;BME280;60547;48.502;8.996;2023-04-24T05:35:03;97042.41;;;9.34;91.15
72525;BME280;60547;48.502;8.996;2023-04-24T05:37:28;97037.56;;;9.25;90.91
72525;BME280;60547;48.502;8.996;2023-04-24T05:39:54;97064.72;;;9.43;90.90
72525;BME280;60547;48.502;8.996;2023-04-24T05:42:19;97070.13;;;9.47;90.35
72525;BME280;60547;48.502;8.996;2023-04-24T05:44:45;97072.59;;;9.45;89.24
72525;BME280;60547;48.502;8.996;2023-04-24T05:47:10;97068.91;;;9.48;89.20
72525;BME280;60547;48.502;8.996;2023-04-24T05:49:36;97076.53;;;9.56;89.37
72525;BME280;60547;48.502;8.996;2023-04-24T05:52:01;97069.69;;;9.48;89.87
72525;BME280;60547;48.502;8.996;2023-04-24T05:54:29;97085.72;;;9.31;88.66
72525;BME280;60547;48.502;8.996;2023-04-24T05:56:55;97082.78;;;9.48;88.57
72525;BME280;60547;48.502;8.996;2023-04-24T05:59:21;97069.25;;;9.50;88.57
72525;BME280;60547;48.502;8.996;2023-04-24T06:01:46;97085.97;;;9.59;88.40
72525;BME280;60547;48.502;8.996;2023-04-24T06:04:12;97086.63;;;9.63;88.91
72525;BME280;60547;48.502;8.996;2023-04-24T06:06:39;97081.84;;;9.63;88.13
72525;BME280;60547;48.502;8.996;2023-04-24T06:09:04;97082.31;;;9.62;87.47
72525;BME280;60547;48.502;8.996;2023-04-24T06:11:30;97082.06;;;9.69;87.25
72525;BME280;60547;48.502;8.996;2023-04-24T06:13:56;97083.28;;;9.68;87.25
72525;BME280;60547;48.502;8.996;2023-04-24T06:16:21;97080.31;;;9.62;87.83
72525;BME280;60547;48.502;8.996;2023-04-24T06:18:46;97081.91;;;9.73;88.45
72525;BME280;60547;48.502;8.996;2023-04-24T06:21:12;97073.66;;;9.82;86.40
72525;BME280;60547;48.502;8.996;2023-04-24T06:23:38;97075.53;;;10.07;85.40
72525;BME280;60547;48.502;8.996;2023-04-24T06:26:04;97090.03;;;10.54;83.85
72525;BME280;60547;48.502;8.996;2023-04-24T06:28:29;97063.09;;;10.42;82.62
72525;BME280;60547;48.502;8.996;2023-04-24T06:30:55;97088.94;;;10.83;81.01
72525;BME280;60547;48.502;8.996;2023-04-24T06:33:21;97075.69;;;11.05;80.33
72525;BME280;60547;48.502;8.996;2023-04-24T06:35:46;97084.38;;;11.07;78.78
72525;BME280;60547;48.502;8.996;2023-04-24T06:38:12;97070.75;;;11.09;78.03
72525;BME280;60547;48.502;8.996;2023-04-24T06:40:37;97087.47;;;11.18;78.85
72525;BME280;60547;48.502;8.996;2023-04-24T06:43:02;97086.34;;;10.97;78.51
72525;BME280;60547;48.502;8.996;2023-04-24T06:45:29;97079.84;;;11.00;79.03
72525;BME280;60547;48.502;8.996;2023-04-24T06:47:55;97072.81;;;11.36;78.11
72525;BME280;60547;48.502;8.996;2023-04-24T06:50:21;97068.91;;;11.06;77.69
72525;BME280;60547;48.502;8.996;2023-04-24T06:52:46;97088.88;;;11.23;76.68
72525;BME280;60547;48.502;8.996;2023-04-24T06:55:12;97083.06;;;10.90;77.63
72525;BME280;60547;48.502;8.996;2023-04-24T06:57:37;97090.84;;;11.04;76.97
72525;BME280;60547;48.502;8.996;2023-04-24T07:00:04;97081.28;;;11.14;78.48
72525;BME280;60547;48.502;8.996;2023-04-24T07:02:30;97079.66;;;10.86;76.94
72525;BME280;60547;48.502;8.996;2023-04-24T07:04:55;97078.44;;;10.87;77.50
72525;BME280;60547;48.502;8.996;2023-04-24T07:07:22;97101.31;;;10.91;78.21
72525;BME280;60547;48.502;8.996;2023-04-24T07:09:49;97092.44;;;10.74;77.47
72525;BME280;60547;48.502;8.996;2023-04-24T07:12:16;97105.72;;;10.39;75.61
72525;BME280;60547;48.502;8.996;2023-04-24T07:14:42;97088.56;;;10.19;74.83
72525;BME280;60547;48.502;8.996;2023-04-24T07:17:08;97122.69;;;10.32;73.36
72525;BME280;60547;48.502;8.996;2023-04-24T07:19:34;97123.78;;;10.34;74.91
72525;BME280;60547;48.502;8.996;2023-04-24T07:22:01;97133.28;;;10.24;73.45
72525;BME280;60547;48.502;8.996;2023-04-24T07:24:26;97127.75;;;10.12;74.02
72525;BME280;60547;48.502;8.996;2023-04-24T07:26:52;97132.34;;;10.06;72.92
72525;BME280;60547;48.502;8.996;2023-04-24T07:29:18;97134.16;;;9.99;74.56
72525;BME280;60547;48.502;8.996;2023-04-24T07:31:44;97117.88;;;10.11;73.73
72525;BME280;60547;48.502;8.996;2023-04-24T07:34:10;97145.25;;;10.34;72.51
72525;BME280;60547;48.502;8.996;2023-04-24T07:36:35;97134.75;;;10.38;73.51
72525;BME280;60547;48.502;8.996;2023-04-24T07:39:04;97131.84;;;10.73;72.94
72525;BME280;60547;48.502;8.996;2023-04-24T07:41:29;97119.78;;;10.66;70.48
72525;BME280;60547;48.502;8.996;2023-04-24T07:43:55;97148.19;;;10.61;69.34
72525;BME280;60547;48.502;8.996;2023-04-24T07:46:20;97147.59;;;10.66;69.94
72525;BME280;60547;48.502;8.996;2023-04-24T07:48:46;97159.72;;;10.82;69.50
72525;BME280;60547;48.502;8.996;2023-04-24T07:51:14;97161.28;;;10.83;68.27
72525;BME280;60547;48.502;8.996;2023-04-24T07:53:41;97159.47;;;10.89;67.39
72525;BME280;60547;48.502;8.996;2023-04-24T07:56:07;97167.63;;;10.83;66.89
72525;BME280;60547;48.502;8.996;2023-04-24T07:58:33;97163.16;;;10.86;68.13
72525;BME280;60547;48.502;8.996;2023-04-24T08:00:58;97173.72;;;11.00;66.61
72525;BME280;60547;48.502;8.996;2023-04-24T08:03:26;97174.34;;;10.95;65.81
72525;BME280;60547;48.502;8.996;2023-04-24T08:05:51;97182.19;;;10.87;65.22
72525;BME280;60547;48.502;8.996;2023-04-24T08:08:17;97184.78;;;10.82;66.77
72525;BME280;60547;48.502;8.996;2023-04-24T08:10:42;97186.91;;;10.78;65.27
72525;BME280;60547;48.502;8.996;2023-04-24T08:13:08;97188.56;;;10.66;66.13
72525;BME280;60547;48.502;8.996;2023-04-24T08:15:34;97188.75;;;10.72;65.93
72525;BME280;60547;48.502;8.996;2023-04-24T08:17:59;97186.28;;;10.74;65.63
72525;BME280;60547;48.502;8.996;2023-04-24T08:20:25;97203.63;;;10.78;66.76
72525;BME280;60547;48.502;8.996;2023-04-24T08:22:50;97192.13;;;10.66;65.30
72525;BME280;60547;48.502;8.996;2023-04-24T08:25:16;97214.88;;;10.74;66.34
72525;BME280;60547;48.502;8.996;2023-04-24T08:27:43;97214.09;;;10.74;64.96
72525;BME280;60547;48.502;8.996;2023-04-24T08:30:09;97216.31;;;10.79;64.11
72525;BME280;60547;48.502;8.996;2023-04-24T08:32:36;97229.25;;;10.73;64.10
72525;BME280;60547;48.502;8.996;2023-04-24T08:35:02;97193.34;;;10.65;62.83
72525;BME280;60547;48.502;8.996;2023-04-24T08:37:27;97212.03;;;10.87;62.70
72525;BME280;60547;48.502;8.996;2023-04-24T08:39:53;97219.81;;;11.01;62.74
72525;BME280;60547;48.502;8.996;2023-04-24T08:42:19;97222.69;;;11.19;61.76
72525;BME280;60547;48.502;8.996;2023-04-24T08:44:47;97218.91;;;11.35;60.81
72525;BME280;60547;48.502;8.996;2023-04-24T08:47:14;97213.13;;;11.70;59.43
72525;BME280;60547;48.502;8.996;2023-04-24T08:49:40;97219.38;;;11.92;60.28
72525;BME280;60547;48.502;8.996;2023-04-24T08:52:05;97232.13;;;12.11;57.65
72525;BME280;60547;48.502;8.996;2023-04-24T08:54:33;97228.84;;;12.04;57.23
72525;BME280;60547;48.502;8.996;2023-04-24T08:57:00;97236.50;;;11.72;57.20
72525;BME280;60547;48.502;8.996;2023-04-24T08:59:27;97218.81;;;11.57;58.65
72525;BME280;60547;48.502;8.996;2023-04-24T09:01:54;97231.16;;;11.47;58.73
72525;BME280;60547;48.502;8.996;2023-04-24T09:04:22;97222.47;;;11.36;59.74
72525;BME280;60547;48.502;8.996;2023-04-24T09:06:51;97232.56;;;11.51;60.44
72525;BME280;60547;48.502;8.996;2023-04-24T09:09:17;97236.06;;;11.33;58.56
72525;BME280;60547;48.502;8.996;2023-04-24T09:11:46;97234.13;;;11.52;58.73
72525;BME280;60547;48.502;8.996;2023-04-24T09:14:11;97229.38;;;11.71;59.65
72525;BME280;60547;48.502;8.996;2023-04-24T09:16:38;97240.28;;;11.87;59.52
72525;BME280;60547;48.502;8.996;2023-04-24T09:19:03;97233.19;;;11.95;58.90
72525;BME280;60547;48.502;8.996;2023-04-24T09:21:35;97252.53;;;11.90;59.85
72525;BME280;60547;48.502;8.996;2023-04-24T09:24:05;97250.84;;;11.92;57.97
72525;BME280;60547;48.502;8.996;2023-04-24T09:26:32;97242.72;;;11.76;60.43
72525;BME280;60547;48.502;8.996;2023-04-24T09:28:58;97262.22;;;11.76;60.77
72525;BME280;60547;48.502;8.996;2023-04-24T09:31:27;97245.84;;;11.78;60.95
72525;BME280;60547;48.502;8.996;2023-04-24T09:34:00;97254.09;;;11.91;60.59
72525;BME280;60547;48.502;8.996;2023-04-24T09:36:30;97252.41;;;12.12;56.33
72525;BME280;60547;48.502;8.996;2023-04-24T09:39:02;97250.56;;;12.36;57.86
72525;BME280;60547;48.502;8.996;2023-04-24T09:41:28;97257.41;;;12.44;59.18
72525;BME280;60547;48.502;8.996;2023-04-24T09:43:56;97256.78;;;12.31;56.81
72525;BME280;60547;48.502;8.996;2023-04-24T09:46:29;97265.44;;;12.24;55.27
72525;BME280;60547;48.502;8.996;2023-04-24T09:48:56;97266.38;;;12.39;56.14
72525;BME280;60547;48.502;8.996;2023-04-24T09:51:35;97257.66;;;12.01;54.86
72525;BME280;60547;48.502;8.996;2023-04-24T09:54:07;97268.06;;;11.60;56.25
72525;BME280;60547;48.502;8.996;2023-04-24T09:56:36;97274.34;;;11.82;55.66
72525;BME280;60547;48.502;8.996;2023-04-24T09:59:05;97267.47;;;11.74;54.93
72525;BME280;60547;48.502;8.996;2023-04-24T10:01:32;97264.78;;;11.92;55.19
72525;BME280;60547;48.502;8.996;2023-04-24T10:03:57;97281.56;;;12.20;54.74
72525;BME280;60547;48.502;8.996;2023-04-24T10:06:31;97280.31;;;12.30;52.50
72525;BME280;60547;48.502;8.996;2023-04-24T10:08:56;97265.16;;;12.49;52.21
72525;BME280;60547;48.502;8.996;2023-04-24T10:11:26;97265.41;;;12.97;52.75
72525;BME280;60547;48.502;8.996;2023-04-24T10:13:52;97264.75;;;13.11;52.01
72525;BME280;60547;48.502;8.996;2023-04-24T10:16:18;97273.09;;;13.39;50.69
72525;BME280;60547;48.502;8.996;2023-04-24T10:18:45;97273.03;;;13.90;50.98
72525;BME280;60547;48.502;8.996;2023-04-24T10:21:11;97264.50;;;13.51;49.51
72525;BME280;60547;48.502;8.996;2023-04-24T10:23:38;97257.75;;;13.34;50.18
72525;BME280;60547;48.502;8.996;2023-04-24T10:26:04;97264.81;;;12.84;51.45
72525;BME280;60547;48.502;8.996;2023-04-24T10:28:30;97267.28;;;12.91;51.67
72525;BME280;60547;48.502;8.996;2023-04-24T10:30:58;97279.41;;;12.51;51.07
72525;BME280;60547;48.502;8.996;2023-04-24T10:33:23;97276.75;;;12.29;51.33
72525;BME280;60547;48.502;8.996;2023-04-24T10:35:50;97294.22;;;12.03;52.74
72525;BME280;60547;48.502;8.996;2023-04-24T10:38:21;97289.69;;;11.87;54.01
72525;BME280;60547;48.502;8.996;2023-04-24T10:40:49;97302.25;;;11.91;54.37
72525;BME280;60547;48.502;8.996;2023-04-24T10:43:17;97303.78;;;11.83;55.04
72525;BME280;60547;48.502;8.996;2023-04-24T10:46:00;97318.84;;;11.64;55.46
72525;BME280;60547;48.502;8.996;2023-04-24T10:48:27;97322.38;;;11.55;57.87
72525;BME280;60547;48.502;8.996;2023-04-24T10:50:53;97324.34;;;11.46;57.02
72525;BME280;60547;48.502;8.996;2023-04-24T10:53:20;97334.78;;;11.32;57.11
72525;BME280;60547;48.502;8.996;2023-04-24T10:55:51;97327.03;;;11.27;58.50
72525;BME280;60547;48.502;8.996;2023-04-24T10:58:22;97336.03;;;11.31;58.44
72525;BME280;60547;48.502;8.996;2023-04-24T11:01:00;97342.59;;;11.47;57.31
72525;BME280;60547;48.502;8.996;2023-04-24T11:03:29;97334.66;;;11.67;57.41
72525;BME280;60547;48.502;8.996;2023-04-24T11:06:08;97341.25;;;11.82;57.34
72525;BME280;60547;48.502;8.996;2023-04-24T11:08:44;97340.97;;;11.89;57.52
72525;BME280;60547;48.502;8.996;2023-04-24T11:11:14;97340.59;;;12.18;56.92
72525;BME280;60547;48.502;8.996;2023-04-24T11:16:31;97353.66;;;12.49;57.43
72525;BME280;60547;48.502;8.996;2023-04-24T11:19:04;97360.44;;;12.20;54.16
72525;BME280;60547;48.502;8.996;2023-04-24T11:21:32;97354.03;;;12.02;54.38
72525;BME280;60547;48.502;8.996;2023-04-24T11:23:58;97348.28;;;11.96;54.87
72525;BME280;60547;48.502;8.996;2023-04-24T11:26:24;97343.44;;;11.87;54.73
72525;BME280;60547;48.502;8.996;2023-04-24T11:29:06;97348.88;;;11.91;56.40
72525;BME280;60547;48.502;8.996;2023-04-24T11:31:44;97351.69;;;11.69;56.09
72525;BME280;60547;48.502;8.996;2023-04-24T11:34:15;97375.50;;;11.61;56.75
72525;BME280;60547;48.502;8.996;2023-04-24T11:36:45;97372.47;;;11.46;56.29
72525;BME280;60547;48.502;8.996;2023-04-24T11:39:11;97364.91;;;11.47;55.81
72525;BME280;60547;48.502;8.996;2023-04-24T11:41:37;97386.13;;;11.53;56.77
72525;BME280;60547;48.502;8.996;2023-04-24T11:44:03;97379.16;;;11.49;56.10
72525;BME280;60547;48.502;8.996;2023-04-24T11:46:31;97366.47;;;11.26;56.04
72525;BME280;60547;48.502;8.996;2023-04-24T11:48:57;97388.75;;;11.26;56.62
72525;BME280;60547;48.502;8.996;2023-04-24T11:51:24;97371.19;;;11.16;56.82
72525;BME280;60547;48.502;8.996;2023-04-24T11:53:51;97378.53;;;11.23;57.06
72525;BME280;60547;48.502;8.996;2023-04-24T11:56:21;97375.41;;;11.21;57.86
72525;BME280;60547;48.502;8.996;2023-04-24T11:58:47;97387.72;;;11.32;58.18
72525;BME280;60547;48.502;8.996;2023-04-24T12:01:13;97394.59;;;11.19;58.66
72525;BME280;60547;48.502;8.996;2023-04-24T12:03:38;97394.91;;;10.99;58.56
72525;BME280;60547;48.502;8.996;2023-04-24T12:06:06;97401.31;;;11.09;60.08
72525;BME280;60547;48.502;8.996;2023-04-24T12:08:33;97405.44;;;11.04;60.22
72525;BME280;60547;48.502;8.996;2023-04-24T12:11:00;97401.56;;;11.23;60.31
72525;BME280;60547;48.502;8.996;2023-04-24T12:13:26;97397.44;;;11.28;58.36
72525;BME280;60547;48.502;8.996;2023-04-24T12:15:52;97410.78;;;11.11;57.17
72525;BME280;60547;48.502;8.996;2023-04-24T12:18:17;97408.19;;;11.17;58.00
72525;BME280;60547;48.502;8.996;2023-04-24T12:20:45;97417.16;;;10.99;57.70
72525;BME280;60547;48.502;8.996;2023-04-24T12:23:10;97403.28;;;10.86;58.19
72525;BME280;60547;48.502;8.996;2023-04-24T12:25:38;97423.31;;;10.94;59.29
72525;BME280;60547;48.502;8.996;2023-04-24T12:30:31;97416.63;;;10.91;57.93
72525;BME280;60547;48.502;8.996;2023-04-24T12:32:57;97409.47;;;10.68;58.66
72525;BME280;60547;48.502;8.996;2023-04-24T12:35:25;97430.63;;;10.66;58.75
72525;BME280;60547;48.502;8.996;2023-04-24T12:37:51;97423.81;;;10.80;58.75
72525;BME280;60547;48.502;8.996;2023-04-24T12:40:19;97425.69;;;10.83;57.04
72525;BME280;60547;48.502;8.996;2023-04-24T12:42:50;97426.59;;;10.80;58.92
72525;BME280;60547;48.502;8.996;2023-04-24T12:45:17;97419.78;;;10.81;58.66
72525;BME280;60547;48.502;8.996;2023-04-24T12:47:44;97414.63;;;10.92;58.95
72525;BME280;60547;48.502;8.996;2023-04-24T12:50:12;97408.94;;;10.95;58.11
72525;BME280;60547;48.502;8.996;2023-04-24T12:52:38;97396.59;;;11.18;57.15
72525;BME280;60547;48.502;8.996;2023-04-24T12:55:04;97399.69;;;11.42;58.39
72525;BME280;60547;48.502;8.996;2023-04-24T12:57:35;97397.78;;;11.83;56.29
72525;BME280;60547;48.502;8.996;2023-04-24T13:00:01;97409.03;;;12.01;57.13
72525;BME280;60547;48.502;8.996;2023-04-24T13:02:28;97395.19;;;12.28;55.01
72525;BME280;60547;48.502;8.996;2023-04-24T13:04:55;97386.09;;;12.55;53.97